Time;durP1;ratioP1;P1;durP2;ratioP2;P2;SDS_P1;SDS_P2;PMS_P1;PMS_P2;Temp;Humidity;BMP_temperature;BMP_pressure;BME280_temperature;BME280_humidity;BME280_pressure;Samples;Min_cycle;Max_cycle;Signal;HPM_P1;HPM_P2
2022/10/07 00:04:21;;;;;;;21.50;16.67;;;;;;;5.95;75.91;102021.71;3394716;80;21020;-85
2022/10/07 00:09:12;;;;;;;18.42;16.48;;;;;;;5.94;76.21;102020.83;3427830;80;22408;-85
2022/10/07 00:14:06;;;;;;;20.05;14.95;;;;;;;5.86;75.74;102025.53;3385766;81;20987;-85
2022/10/07 00:19:01;;;;;;;20.25;14.65;;;;;;;5.83;75.97;102021.52;3411927;81;20984;-85
2022/10/07 00:23:53;;;;;;;20.75;15.75;;;;;;;5.80;75.85;102026.91;3375171;82;20992;-85
2022/10/07 00:28:45;;;;;;;17.12;14.33;;;;;;;5.76;76.17;102015.52;3377716;81;21075;-85
2022/10/07 00:33:38;;;;;;;21.17;14.80;;;;;;;5.68;75.32;102025.38;3407052;81;21218;-86
2022/10/07 00:38:30;;;;;;;20.62;16.10;;;;;;;5.60;75.58;102027.93;3383627;81;21003;-85
2022/10/07 00:43:25;;;;;;;15.78;13.72;;;;;;;5.56;75.98;102019.50;3390188;82;21069;-86
2022/10/07 00:48:22;;;;;;;16.48;12.93;;;;;;;5.51;76.08;102013.20;3389347;81;21117;-86
2022/10/07 00:53:13;;;;;;;17.23;12.73;;;;;;;5.46;75.75;102022.37;3414011;82;20992;-86
2022/10/07 00:58:08;;;;;;;15.78;11.85;;;;;;;5.42;76.21;102016.14;3381817;82;21227;-85
2022/10/07 01:03:00;;;;;;;16.52;12.58;;;;;;;5.38;76.09;102018.44;3368941;81;21067;-85
2022/10/07 01:07:51;;;;;;;18.12;12.40;;;;;;;5.34;76.23;102010.91;3386936;81;20992;-86
2022/10/07 01:12:54;;;;;;;16.62;12.53;;;;;;;5.29;76.23;102004.22;3375246;82;20978;-85
2022/10/07 01:18:21;;;;;;;13.80;11.53;;;;;;;5.25;76.07;102013.84;3385364;81;21245;-85
2022/10/07 01:23:24;;;;;;;16.60;10.80;;;;;;;5.22;76.43;102017.52;3289061;85;21053;-85
2022/10/07 01:28:43;;;;;;;18.07;13.03;;;;;;;5.18;76.52;102015.56;3311776;84;21615;-85
2022/10/07 01:33:37;;;;;;;17.45;12.70;;;;;;;5.11;76.38;102013.41;3275043;84;21189;-85
2022/10/07 01:38:32;;;;;;;17.57;12.00;;;;;;;5.08;76.44;102018.38;3281823;85;20995;-85
2022/10/07 01:43:24;;;;;;;18.90;12.07;;;;;;;5.03;76.49;102019.82;3284255;84;22342;-85
2022/10/07 01:48:15;;;;;;;18.87;13.68;;;;;;;5.00;76.68;102014.47;3258557;84;23157;-85
2022/10/07 01:53:27;;;;;;;19.07;14.38;;;;;;;4.98;76.66;102014.78;3281770;85;20968;-85
2022/10/07 01:58:36;;;;;;;19.10;13.88;;;;;;;4.92;76.65;102023.91;3352658;81;20966;-85
2022/10/07 02:03:45;;;;;;;16.15;13.38;;;;;;;4.90;76.75;102020.73;3423300;82;20955;-84
2022/10/07 02:08:47;;;;;;;17.85;14.25;;;;;;;4.83;76.62;102024.65;3511195;80;20923;-84
2022/10/07 02:13:57;;;;;;;16.37;12.75;;;;;;;4.82;76.82;102023.27;3457766;80;21133;-84
2022/10/07 02:18:52;;;;;;;19.60;14.98;;;;;;;4.78;76.76;102026.05;3466271;79;20919;-84
2022/10/07 02:23:46;;;;;;;18.92;13.78;;;;;;;4.74;76.80;102018.94;3473874;79;21015;-84
2022/10/07 02:28:41;;;;;;;20.82;14.60;;;;;;;4.72;76.88;102013.69;3439990;80;21059;-84
2022/10/07 02:33:34;;;;;;;19.87;14.98;;;;;;;4.68;76.93;102016.84;3428498;80;21600;-84
2022/10/07 02:38:26;;;;;;;22.13;13.75;;;;;;;4.69;76.95;102023.80;3428620;80;21199;-84
2022/10/07 02:43:28;;;;;;;17.85;13.15;;;;;;;4.62;76.98;102022.92;3411849;80;21485;-84
2022/10/07 02:48:28;;;;;;;18.52;13.88;;;;;;;4.57;76.84;102021.34;3406353;82;21003;-84
2022/10/07 02:53:21;;;;;;;19.82;16.12;;;;;;;4.49;76.95;102017.78;3409423;82;21071;-84
2022/10/07 02:58:15;;;;;;;17.02;14.03;;;;;;;4.44;76.89;102026.53;3411968;80;22132;-84
2022/10/07 03:03:07;;;;;;;17.17;15.38;;;;;;;4.39;77.10;102027.92;3458763;80;21194;-84
2022/10/07 03:08:09;;;;;;;21.07;13.95;;;;;;;4.36;77.13;102022.57;3389086;81;20967;-84
2022/10/07 03:13:06;;;;;;;18.60;15.60;;;;;;;4.33;77.01;102025.86;3403238;80;22275;-84
2022/10/07 03:17:55;;;;;;;20.27;15.88;;;;;;;4.30;77.09;102022.20;3424145;80;20991;-84
2022/10/07 03:22:46;;;;;;;22.80;16.37;;;;;;;4.25;77.10;102017.15;3409553;80;20991;-84
2022/10/07 03:27:41;;;;;;;20.97;15.25;;;;;;;4.23;77.05;102022.60;3377027;82;21552;-84
2022/10/07 03:32:39;;;;;;;21.55;16.10;;;;;;;4.16;76.92;102014.47;3401724;82;20947;-84
2022/10/07 03:37:31;;;;;;;22.32;16.12;;;;;;;4.11;76.82;102012.41;3414375;81;20952;-84
2022/10/07 03:42:23;;;;;;;22.65;15.35;;;;;;;4.05;76.87;102012.91;3452029;80;20978;-84
2022/10/07 03:47:16;;;;;;;24.92;16.45;;;;;;;4.00;76.99;102006.56;3438859;82;21413;-84
2022/10/07 03:52:07;;;;;;;19.85;14.87;;;;;;;3.95;76.89;102013.09;3438593;82;21325;-84
2022/10/07 03:57:00;;;;;;;20.92;14.65;;;;;;;3.92;77.05;102014.21;3384375;82;21039;-84
2022/10/07 04:01:51;;;;;;;16.82;13.48;;;;;;;3.85;77.12;102006.89;3434589;80;20981;-84
2022/10/07 04:06:42;;;;;;;21.02;14.73;;;;;;;3.82;77.08;102003.30;3419112;81;21022;-84
2022/10/07 04:11:39;;;;;;;23.47;17.23;;;;;;;3.80;77.13;102002.72;3433797;81;21065;-84
2022/10/07 04:16:29;;;;;;;19.40;15.03;;;;;;;3.77;77.03;101995.70;3449054;81;21153;-84
2022/10/07 04:21:22;;;;;;;26.02;15.93;;;;;;;3.71;77.16;101994.41;3412150;81;21425;-84
2022/10/07 04:26:14;;;;;;;23.05;15.35;;;;;;;3.66;77.06;101991.52;3444968;81;21920;-83
2022/10/07 04:31:10;;;;;;;16.90;14.33;;;;;;;3.64;77.26;101993.10;3488593;80;20935;-83
2022/10/07 04:36:10;;;;;;;19.60;15.05;;;;;;;3.60;77.20;101993.70;3437278;81;20979;-83
2022/10/07 04:41:06;;;;;;;17.85;14.68;;;;;;;3.57;77.24;101983.20;3460262;80;21021;-83
2022/10/07 04:46:06;;;;;;;20.60;16.02;;;;;;;3.53;77.42;101985.09;3454012;80;20981;-83
2022/10/07 04:51:07;;;;;;;21.23;16.77;;;;;;;3.53;77.52;101989.83;3457250;80;21396;-83
2022/10/07 04:55:59;;;;;;;21.50;16.42;;;;;;;3.54;77.72;101984.28;3455009;80;20953;-83
2022/10/07 05:00:53;;;;;;;23.80;16.85;;;;;;;3.54;77.64;101980.42;3408040;80;20986;-83
2022/10/07 05:05:50;;;;;;;20.55;15.75;;;;;;;3.56;77.78;101986.55;3490237;81;22010;-83
2022/10/07 05:10:42;;;;;;;19.12;14.98;;;;;;;3.60;77.76;101980.84;3479617;80;21596;-83
2022/10/07 05:15:33;;;;;;;19.02;15.32;;;;;;;3.61;77.78;101977.09;3432734;81;20970;-83
2022/10/07 05:20:25;;;;;;;21.07;15.95;;;;;;;3.67;77.83;101975.31;3430598;80;20995;-83
2022/10/07 05:25:18;;;;;;;20.97;16.40;;;;;;;3.70;77.75;101983.23;3420015;81;21013;-83
2022/10/07 05:30:11;;;;;;;20.80;15.88;;;;;;;3.75;77.82;101979.25;3459509;81;22059;-83
2022/10/07 05:35:03;;;;;;;22.98;16.02;;;;;;;3.81;77.87;101979.66;3356644;82;20957;-83
2022/10/07 05:39:55;;;;;;;24.05;16.05;;;;;;;3.89;77.98;101985.70;3373501;82;21006;-83
2022/10/07 05:44:47;;;;;;;27.20;16.05;;;;;;;3.97;77.92;101989.27;3438671;81;20991;-82
2022/10/07 05:49:40;;;;;;;20.00;14.83;;;;;;;4.00;78.01;101984.69;3449213;81;20931;-83
2022/10/07 05:54:32;;;;;;;18.82;15.72;;;;;;;4.07;78.10;101995.87;3439134;81;21469;-83
2022/10/07 05:59:23;;;;;;;28.87;15.75;;;;;;;4.11;78.29;101984.97;3405138;81;20960;-83
2022/10/07 06:04:14;;;;;;;17.90;13.48;;;;;;;4.18;78.41;101986.26;3457357;81;21001;-83
2022/10/07 06:14:18;;;;;;;19.00;15.85;;;;;;;4.36;78.62;102004.55;3371205;82;20990;-83
2022/10/07 06:19:21;;;;;;;17.95;14.73;;;;;;;4.47;78.70;102003.55;3394124;82;21650;-83
2022/10/07 06:24:03;;;;;;;23.73;17.80;;;;;;;4.54;78.79;102000.56;3369267;81;21537;-83
2022/10/07 06:28:56;;;;;;;19.37;14.75;;;;;;;4.61;79.00;102003.50;3376266;81;20992;-83
2022/10/07 06:33:49;;;;;;;22.27;15.10;;;;;;;4.77;79.39;102008.80;3393574;82;21149;-83
2022/10/07 06:38:47;;;;;;;21.00;15.43;;;;;;;5.26;79.26;102000.16;3367602;81;20955;-83
2022/10/07 06:43:39;;;;;;;21.60;15.65;;;;;;;5.38;79.33;101997.80;3397922;81;21245;-83
2022/10/07 06:48:34;;;;;;;21.82;17.17;;;;;;;5.45;79.49;101997.36;3416086;81;22166;-84
2022/10/07 06:53:26;;;;;;;22.30;15.35;;;;;;;5.50;79.76;101998.52;3399758;81;21557;-84
2022/10/07 06:58:18;;;;;;;20.37;15.75;;;;;;;5.57;79.98;102004.93;3374868;81;21053;-84
2022/10/07 07:03:11;;;;;;;25.20;17.00;;;;;;;5.66;80.26;102007.62;3358524;81;21008;-94
2022/10/07 07:08:03;;;;;;;20.65;16.20;;;;;;;5.80;80.75;102004.97;3376593;81;21385;-87
2022/10/07 07:12:54;;;;;;;17.55;15.50;;;;;;;5.94;81.02;102010.51;3327971;83;21023;-88
2022/10/07 07:17:46;;;;;;;21.25;15.90;;;;;;;6.08;81.18;102000.58;3362580;82;21011;-86
2022/10/07 07:22:38;;;;;;;21.82;15.55;;;;;;;6.25;81.68;102001.91;3315706;83;21035;-91
2022/10/07 07:27:30;;;;;;;20.35;16.50;;;;;;;6.44;81.88;101999.95;3313876;83;20998;-86
2022/10/07 07:32:21;;;;;;;20.32;17.05;;;;;;;6.75;82.16;101990.83;3329413;83;21045;-86
2022/10/07 07:37:13;;;;;;;20.17;14.65;;;;;;;7.00;82.30;101989.53;3340039;83;21526;-86
2022/10/07 07:42:06;;;;;;;22.42;15.60;;;;;;;7.22;82.36;101988.52;3363114;82;21003;-85
2022/10/07 07:46:58;;;;;;;18.77;13.38;;;;;;;7.85;82.16;101976.50;3330154;83;21022;-85
2022/10/07 07:51:50;;;;;;;14.83;11.97;;;;;;;8.42;81.92;101983.48;3317049;83;21106;-96
2022/10/07 07:56:43;;;;;;;16.02;12.03;;;;;;;8.61;82.09;101986.13;3329521;83;21549;-94
2022/10/07 08:01:36;;;;;;;19.65;11.43;;;;;;;9.01;81.84;101980.11;3350915;83;21016;-96
2022/10/07 08:06:29;;;;;;;19.95;12.30;;;;;;;9.31;81.75;101980.54;3343545;82;20999;-94
2022/10/07 08:11:20;;;;;;;16.55;11.90;;;;;;;9.47;82.05;101971.69;3332278;82;21498;-92
2022/10/07 08:16:17;;;;;;;14.53;9.78;;;;;;;9.69;82.13;101969.97;3357065;83;21023;-92
2022/10/07 08:21:12;;;;;;;15.80;10.77;;;;;;;10.15;81.24;101966.59;3359095;82;21398;-92
2022/10/07 08:26:05;;;;;;;13.53;8.58;;;;;;;10.43;81.03;101965.98;3336284;82;21043;-90
2022/10/07 08:31:13;;;;;;;11.20;8.15;;;;;;;11.22;79.31;101947.95;3374866;82;21166;-92
2022/10/07 08:36:06;;;;;;;10.08;7.08;;;;;;;11.22;79.31;101947.95;3371613;82;21018;-90
2022/10/07 08:41:21;;;;;;;13.78;7.12;;;;;;;11.36;79.10;101947.13;3372466;82;21703;-94
2022/10/07 08:46:24;;;;;;;9.48;6.60;;;;;;;12.12;77.93;101943.48;3406007;82;21484;-93
2022/10/07 08:51:33;;;;;;;9.48;6.30;;;;;;;12.34;76.96;101934.98;3394595;82;21048;-90
2022/10/07 08:56:26;;;;;;;9.08;5.83;;;;;;;12.50;76.63;101928.48;3340720;83;21043;-96
2022/10/07 09:01:57;;;;;;;7.58;6.05;;;;;;;12.78;76.07;101931.45;3266441;83;21764;-94
2022/10/07 09:07:03;;;;;;;8.45;5.55;;;;;;;12.69;75.80;101925.55;3306854;83;21031;-95
2022/10/07 09:11:57;;;;;;;10.95;5.95;;;;;;;12.77;74.72;101917.96;3407792;81;21488;-94
2022/10/07 09:16:50;;;;;;;7.15;5.58;;;;;;;12.80;74.26;101922.37;3422272;82;20962;-92
2022/10/07 09:21:50;;;;;;;9.13;5.35;;;;;;;12.92;74.00;101923.57;3429571;82;21011;-89
2022/10/07 09:26:42;;;;;;;7.30;5.97;;;;;;;13.58;72.58;101913.94;3413845;79;21474;-91
2022/10/07 09:31:33;;;;;;;6.95;5.45;;;;;;;14.49;71.50;101903.70;3462175;80;21150;-88
2022/10/07 09:36:25;;;;;;;7.62;4.58;;;;;;;15.19;70.35;101889.30;3465120;80;21295;-87
2022/10/07 09:41:34;;;;;;;7.95;4.05;;;;;;;15.44;69.04;101883.58;3460508;80;20974;-89
2022/10/07 09:46:40;;;;;;;6.75;3.60;;;;;;;15.73;68.88;101879.63;3483031;80;20963;-95
2022/10/07 09:51:34;;;;;;;8.98;3.62;;;;;;;16.68;67.69;101871.63;3466054;80;20975;-94
2022/10/07 09:56:42;;;;;;;4.53;3.45;;;;;;;16.47;67.99;101862.21;3407493;82;20967;-95
2022/10/07 10:01:33;;;;;;;4.35;3.52;;;;;;;17.10;65.92;101862.42;3436286;80;22445;-96
2022/10/07 10:06:26;;;;;;;5.97;3.67;;;;;;;16.83;66.20;101851.63;3474101;80;21030;-93
2022/10/07 10:11:24;;;;;;;6.67;3.60;;;;;;;16.85;65.39;101844.27;3460611;81;21026;-96
2022/10/07 10:16:33;;;;;;;7.47;3.80;;;;;;;16.69;65.48;101840.58;3430087;80;20974;-92
2022/10/07 10:21:37;;;;;;;8.78;3.70;;;;;;;16.54;65.34;101830.81;3424943;81;20991;-94
2022/10/07 10:27:00;;;;;;;8.78;3.60;;;;;;;16.29;65.84;101824.40;3436336;80;22006;-93
2022/10/07 10:32:29;;;;;;;5.60;3.20;;;;;;;16.38;65.46;101811.80;3433644;81;21626;-96
2022/10/07 10:37:26;;;;;;;6.20;3.52;;;;;;;16.63;64.72;101802.42;3408766;81;21002;-92
2022/10/07 10:42:26;;;;;;;6.15;2.90;;;;;;;16.82;64.44;101794.73;3420926;77;20943;-94
2022/10/07 10:47:35;;;;;;;2.50;2.30;;;;;;;16.64;64.61;101788.45;3430204;80;20975;-96
2022/10/07 10:52:56;;;;;;;3.90;1.95;;;;;;;17.22;63.09;101776.21;3372383;83;21144;-92
2022/10/07 10:58:04;;;;;;;2.02;1.82;;;;;;;19.57;59.43;101765.20;3173152;88;21022;-91
2022/10/07 11:03:10;;;;;;;3.75;1.70;;;;;;;20.21;57.64;101756.98;3134474;88;21012;-93
2022/10/07 11:08:27;;;;;;;4.85;1.85;;;;;;;19.95;58.27;101752.30;3076067;90;20979;-93
2022/10/07 11:13:29;;;;;;;2.08;1.62;;;;;;;21.74;55.83;101738.80;3054671;92;21677;-93
2022/10/07 11:18:34;;;;;;;3.33;1.50;;;;;;;23.64;53.29;101723.66;3047509;91;21122;-86
2022/10/07 11:23:46;;;;;;;2.40;1.50;;;;;;;24.86;52.33;101715.00;3059809;92;20988;-86
2022/10/07 11:28:40;;;;;;;3.67;2.12;;;;;;;25.60;49.65;101712.95;3008739;93;21046;-87
2022/10/07 11:33:55;;;;;;;4.20;2.27;;;;;;;26.06;47.57;101695.58;3211493;83;21002;-87
2022/10/07 11:38:49;;;;;;;4.60;1.95;;;;;;;26.29;48.81;101683.27;3322013;82;21621;-86
2022/10/07 11:43:52;;;;;;;3.65;1.85;;;;;;;26.51;48.69;101668.29;3386200;80;21185;-86
2022/10/07 11:49:06;;;;;;;2.75;2.10;;;;;;;25.57;47.88;101662.45;3378717;82;21663;-94
2022/10/07 11:54:05;;;;;;;3.33;2.20;;;;;;;24.19;48.46;101657.34;3446163;80;20987;-93
2022/10/07 11:59:04;;;;;;;4.10;2.30;;;;;;;22.86;49.37;101643.42;3468523;80;20988;-88
2022/10/07 12:04:34;;;;;;;3.62;2.37;;;;;;;22.06;50.03;101640.37;3460068;78;21512;-91
2022/10/07 12:10:22;;;;;;;4.83;2.20;;;;;;;21.49;50.29;101633.73;3467262;80;21045;-87
2022/10/07 12:15:43;;;;;;;4.37;2.10;;;;;;;21.10;50.44;101616.14;3479488;80;20975;-89
2022/10/07 12:20:53;;;;;;;4.83;2.62;;;;;;;20.79;51.05;101611.22;3454800;80;20950;-89
2022/10/07 12:25:48;;;;;;;3.10;2.20;;;;;;;20.70;51.42;101600.76;3490060;80;21012;-88
2022/10/07 12:30:51;;;;;;;4.55;2.10;;;;;;;20.75;51.58;101591.88;3427186;80;21003;-86
2022/10/07 12:35:45;;;;;;;3.67;2.62;;;;;;;20.79;51.28;101586.57;3487659;79;20986;-87
2022/10/07 12:40:37;;;;;;;5.70;2.47;;;;;;;20.89;51.10;101585.13;3393913;81;21008;-87
2022/10/07 12:45:30;;;;;;;3.98;1.90;;;;;;;21.01;51.16;101581.89;3430887;82;20995;-86
2022/10/07 12:50:24;;;;;;;4.62;2.92;;;;;;;21.03;51.83;101570.84;3386206;82;20994;-87
2022/10/07 12:55:26;;;;;;;3.80;2.22;;;;;;;20.93;51.25;101563.48;3402813;82;21031;-87
2022/10/07 13:00:23;;;;;;;2.52;2.15;;;;;;;20.86;52.20;101561.36;3430422;81;22752;-86
2022/10/07 13:05:24;;;;;;;;;;;;;;;20.77;51.17;101550.05;3387227;81;21032;-86
2022/10/07 13:10:52;;;;;;;5.35;2.47;;;;;;;20.77;51.02;101544.30;3448011;81;20205;-87
2022/10/07 13:15:58;;;;;;;4.95;2.08;;;;;;;20.67;51.94;101536.05;3435213;81;21461;-91
2022/10/07 13:21:07;;;;;;;2.70;2.00;;;;;;;20.63;51.64;101526.42;3465566;81;20888;-93
2022/10/07 13:26:02;;;;;;;2.12;1.60;;;;;;;20.60;51.33;101522.45;3415933;81;21210;-91
2022/10/07 13:30:53;;;;;;;2.60;1.72;;;;;;;20.61;51.78;101513.23;3439256;82;20960;-91
2022/10/07 13:35:45;;;;;;;5.65;1.82;;;;;;;20.43;51.62;101505.04;3432355;81;20992;-89
2022/10/07 13:40:36;;;;;;;4.53;2.25;;;;;;;20.06;52.19;101494.86;3399653;81;21429;-87
2022/10/07 13:45:28;;;;;;;3.58;2.10;;;;;;;19.79;52.70;101489.41;3418723;81;20939;-89
2022/10/07 13:50:26;;;;;;;4.22;2.20;;;;;;;19.62;52.45;101480.30;3430171;81;21605;-89
2022/10/07 13:55:29;;;;;;;5.10;2.58;;;;;;;19.43;52.37;101471.66;3414456;81;20948;-88
2022/10/07 14:00:20;;;;;;;5.17;2.90;;;;;;;19.27;53.66;101464.75;3450765;81;21473;-88
2022/10/07 14:05:30;;;;;;;4.45;2.85;;;;;;;19.12;53.90;101462.65;3362165;82;21018;-89
2022/10/07 14:10:26;;;;;;;4.50;2.40;;;;;;;19.07;54.06;101458.30;3405344;82;21034;-89
2022/10/07 14:15:26;;;;;;;6.50;2.25;;;;;;;19.01;54.32;101448.23;3353272;82;21645;-89
2022/10/07 14:20:33;;;;;;;4.00;2.72;;;;;;;19.00;55.22;101430.65;3394365;82;21035;-89
2022/10/07 14:25:28;;;;;;;4.28;2.58;;;;;;;18.88;55.29;101432.05;3351897;83;21319;-90
2022/10/07 14:30:28;;;;;;;4.28;2.62;;;;;;;18.76;55.32;101423.75;3376798;83;21225;-90
2022/10/07 14:35:22;;;;;;;10.63;6.17;;;;;;;18.55;55.28;101416.84;3444633;80;21445;-87
2022/10/07 14:40:25;;;;;;;5.80;3.15;;;;;;;18.37;56.51;101406.37;3438386;82;21679;-85
2022/10/07 14:45:16;;;;;;;10.72;3.25;;;;;;;18.10;57.59;101398.59;3433757;80;21519;-87
2022/10/07 14:50:08;;;;;;;5.47;3.30;;;;;;;17.83;58.07;101385.47;3447375;81;20968;-95
2022/10/07 14:55:06;;;;;;;6.45;3.02;;;;;;;17.55;58.78;101385.98;3415885;81;21002;-95
2022/10/07 14:59:57;;;;;;;10.05;3.17;;;;;;;17.24;59.64;101371.52;3436840;82;21485;-90
2022/10/07 15:04:49;;;;;;;14.35;4.53;;;;;;;16.90;59.99;101370.19;3412084;81;21242;-95
2022/10/07 15:09:42;;;;;;;3.80;2.70;;;;;;;16.64;61.23;101364.42;3394972;81;21537;-94
2022/10/07 15:14:33;;;;;;;14.00;3.33;;;;;;;16.29;61.76;101362.56;3387639;81;20979;-94
2022/10/07 15:19:25;;;;;;;7.90;3.75;;;;;;;16.01;62.64;101357.66;3361549;82;21518;-91
2022/10/07 15:24:18;;;;;;;10.68;5.70;;;;;;;15.75;63.49;101353.58;3370622;80;21052;-89
2022/10/07 15:29:10;;;;;;;6.53;4.30;;;;;;;15.50;64.28;101349.45;3365956;81;21471;-89
2022/10/07 15:34:01;;;;;;;13.98;4.50;;;;;;;15.23;64.75;101349.69;3420720;80;20962;-89
2022/10/07 15:38:53;;;;;;;11.95;4.00;;;;;;;14.96;65.24;101339.87;3493243;79;20951;-89
2022/10/07 15:43:44;;;;;;;5.95;3.12;;;;;;;14.69;65.67;101339.19;3419429;80;21564;-89
2022/10/07 15:48:35;;;;;;;7.47;3.58;;;;;;;14.47;66.36;101334.14;3430089;81;20963;-89
2022/10/07 15:53:26;;;;;;;8.53;3.37;;;;;;;14.24;66.64;101332.56;3383453;82;21513;-89
2022/10/07 15:58:18;;;;;;;11.17;4.20;;;;;;;14.01;67.17;101332.28;3422250;82;20958;-89
2022/10/07 16:03:09;;;;;;;9.25;3.50;;;;;;;13.79;67.72;101329.80;3392545;82;21386;-89
2022/10/07 16:08:01;;;;;;;6.65;3.50;;;;;;;13.56;67.90;101325.15;3370108;82;20973;-88
2022/10/07 16:12:53;;;;;;;12.80;3.77;;;;;;;13.32;68.22;101313.48;3400278;82;21075;-88
2022/10/07 16:17:44;;;;;;;7.85;3.75;;;;;;;13.21;68.55;101322.83;3364156;82;21924;-85
2022/10/07 16:22:35;;;;;;;17.90;3.92;;;;;;;13.07;69.15;101322.61;3379936;82;20942;-86
2022/10/07 16:30:39;;;;;;;7.60;3.77;;;;;;;12.91;69.35;101331.03;3396132;82;21304;-86
2022/10/07 16:32:19;;;;;;;4.70;3.85;;;;;;;12.77;69.68;101329.52;3349714;82;21470;-86
2022/10/07 16:37:11;;;;;;;5.47;3.58;;;;;;;12.65;70.16;101324.08;3341442;81;20922;-85
2022/10/07 16:42:02;;;;;;;4.37;3.70;;;;;;;12.51;70.23;101322.51;3392482;82;22103;-85
2022/10/07 16:46:57;;;;;;;7.80;3.75;;;;;;;12.38;70.44;101322.27;3331089;81;21038;-85
2022/10/07 16:51:49;;;;;;;6.55;3.55;;;;;;;12.28;70.98;101325.97;3365510;82;20994;-85
2022/10/07 16:56:47;;;;;;;7.58;4.17;;;;;;;12.17;71.19;101316.64;3353215;81;20983;-85
2022/10/07 17:01:39;;;;;;;5.65;4.22;;;;;;;12.07;71.44;101316.86;3388376;83;20976;-85
2022/10/07 17:06:31;;;;;;;14.63;5.17;;;;;;;11.98;71.48;101312.77;3382783;81;21558;-85
2022/10/07 17:11:29;;;;;;;10.30;4.47;;;;;;;11.88;71.72;101306.47;3381773;82;21113;-85
2022/10/07 17:16:20;;;;;;;7.75;4.37;;;;;;;11.78;72.01;101302.77;3370994;81;21473;-85
2022/10/07 17:21:11;;;;;;;6.55;3.80;;;;;;;11.68;72.16;101290.42;3356478;81;20987;-85
2022/10/07 17:26:06;;;;;;;9.98;4.65;;;;;;;11.62;72.47;101285.05;3371688;83;39447;-85
2022/10/07 17:31:04;;;;;;;10.28;4.92;;;;;;;11.52;72.69;101285.30;3414112;81;21346;-85
2022/10/07 17:36:05;;;;;;;8.65;4.67;;;;;;;11.47;73.00;101283.44;3348064;82;21516;-85
2022/10/07 17:40:56;;;;;;;7.37;4.75;;;;;;;11.42;73.00;101283.31;3392131;82;21074;-85
2022/10/07 17:45:48;;;;;;;10.20;4.53;;;;;;;11.34;73.19;101280.95;3400880;80;21106;-85
2022/10/07 17:50:39;;;;;;;9.50;4.78;;;;;;;11.29;73.39;101269.15;3438150;80;21380;-85
2022/10/07 17:55:31;;;;;;;10.05;5.15;;;;;;;11.25;73.72;101267.33;3491486;80;21245;-85
2022/10/07 18:00:23;;;;;;;8.35;4.65;;;;;;;11.21;73.90;101260.27;3460748;80;20939;-85
2022/10/07 18:05:14;;;;;;;7.90;5.28;;;;;;;11.15;74.02;101251.03;3460406;80;20983;-85
2022/10/07 18:10:07;;;;;;;6.53;4.60;;;;;;;11.09;74.04;101253.48;3462971;79;20987;-85
2022/10/07 18:15:40;;;;;;;9.18;4.70;;;;;;;11.05;74.20;101253.42;3417628;81;21573;-85
2022/10/07 18:19:54;;;;;;;13.03;4.85;;;;;;;11.01;74.23;101246.38;3400323;80;21435;-84
2022/10/07 18:24:45;;;;;;;8.90;4.70;;;;;;;10.96;74.27;101238.88;3465786;79;21536;-85
2022/10/07 18:29:37;;;;;;;7.67;4.17;;;;;;;10.91;74.25;101238.31;3462389;79;21001;-84
2022/10/07 18:34:28;;;;;;;5.78;4.22;;;;;;;10.86;74.61;101238.22;3445620;79;20974;-85
2022/10/07 18:39:19;;;;;;;6.53;4.42;;;;;;;10.82;74.76;101236.36;3413197;80;21492;-85
2022/10/07 18:44:11;;;;;;;10.20;5.28;;;;;;;10.78;74.97;101235.41;3462201;80;21561;-84
2022/10/07 18:49:02;;;;;;;10.45;4.60;;;;;;;10.74;75.17;101228.81;3367388;81;20925;-85
2022/10/07 18:53:54;;;;;;;10.20;5.12;;;;;;;10.71;75.15;101224.83;3368388;83;20916;-85
2022/10/07 18:58:49;;;;;;;9.58;5.17;;;;;;;10.66;75.03;101224.73;3464685;80;21457;-85
2022/10/07 19:03:41;;;;;;;10.13;5.65;;;;;;;10.57;75.16;101229.28;3369725;81;21101;-85
2022/10/07 19:08:33;;;;;;;6.85;6.03;;;;;;;10.55;75.42;101229.67;3400845;82;22549;-84
2022/10/07 19:18:34;;;;;;;5.85;4.45;;;;;;;10.50;75.74;101228.67;3469204;80;20955;-84
2022/10/07 19:23:27;;;;;;;8.28;5.28;;;;;;;10.44;75.72;101229.36;3423536;80;21552;-84
2022/10/07 19:28:20;;;;;;;6.97;4.80;;;;;;;10.40;75.87;101227.97;3457892;81;21504;-84
2022/10/07 19:33:11;;;;;;;8.70;5.60;;;;;;;10.37;76.02;101223.55;3419974;80;21235;-84
2022/10/07 19:38:05;;;;;;;14.58;6.35;;;;;;;10.34;76.15;101220.89;3465110;81;21010;-84
2022/10/07 19:42:56;;;;;;;9.45;5.30;;;;;;;10.32;76.39;101211.28;3448101;80;21220;-85
2022/10/07 19:47:48;;;;;;;9.60;5.20;;;;;;;10.27;76.15;101213.31;3425936;80;20962;-84
2022/10/07 19:52:39;;;;;;;6.25;5.25;;;;;;;10.22;76.33;101211.02;3471058;81;21069;-85
2022/10/07 19:57:30;;;;;;;8.60;5.72;;;;;;;10.18;76.31;101200.09;3403341;81;20991;-85
2022/10/07 20:02:21;;;;;;;12.53;5.80;;;;;;;10.15;76.64;101198.70;3471051;80;21377;-88
2022/10/07 20:07:12;;;;;;;17.10;6.35;;;;;;;10.13;76.75;101197.78;3495097;81;20978;-83
2022/10/07 20:12:04;;;;;;;8.45;6.40;;;;;;;10.08;76.75;101185.95;3414638;81;20959;-83
2022/10/07 20:16:55;;;;;;;8.60;5.67;;;;;;;10.08;76.85;101187.68;3447175;80;20991;-84
2022/10/07 20:21:47;;;;;;;13.25;6.17;;;;;;;10.06;77.04;101184.17;3461338;80;21559;-84
2022/10/07 20:26:38;;;;;;;10.10;7.00;;;;;;;10.02;76.97;101182.34;3492725;80;20968;-84
2022/10/07 20:31:34;;;;;;;9.18;5.05;;;;;;;9.97;77.11;101177.00;3405316;80;20978;-84
2022/10/07 20:36:30;;;;;;;11.30;6.37;;;;;;;9.96;77.20;101171.77;3457869;80;20967;-84
2022/10/07 20:46:33;;;;;;;11.90;6.05;;;;;;;9.89;77.62;101165.52;3424003;80;22012;-84
2022/10/07 20:51:25;;;;;;;7.47;6.12;;;;;;;9.88;77.78;101165.95;3387179;80;20932;-84
2022/10/07 20:56:18;;;;;;;7.00;6.10;;;;;;;9.85;77.80;101153.30;3439334;80;21082;-84
2022/10/07 21:01:11;;;;;;;7.20;6.53;;;;;;;9.84;77.83;101161.52;3411102;80;20975;-84
2022/10/07 21:06:02;;;;;;;8.20;6.00;;;;;;;9.82;77.98;101151.52;3429008;81;21569;-86
2022/10/07 21:11:04;;;;;;;13.05;7.20;;;;;;;9.80;78.03;101146.70;3404437;82;21198;-86
2022/10/07 21:15:56;;;;;;;8.68;6.83;;;;;;;9.76;78.04;101138.34;3434893;80;20963;-86
2022/10/07 21:20:52;;;;;;;9.58;6.65;;;;;;;9.74;78.26;101137.42;3441793;81;20960;-85
2022/10/07 21:25:43;;;;;;;12.50;6.95;;;;;;;9.72;78.20;101134.78;3400175;80;21650;-85
2022/10/07 21:30:34;;;;;;;10.13;7.62;;;;;;;9.70;78.38;101128.67;3413452;80;21063;-86
2022/10/07 21:35:26;;;;;;;10.85;7.45;;;;;;;9.70;78.78;101121.31;3386237;80;21148;-86
2022/10/07 21:40:17;;;;;;;12.70;7.10;;;;;;;9.72;78.52;101110.55;3436027;80;20968;-86
2022/10/07 21:45:09;;;;;;;11.68;7.65;;;;;;;9.66;78.73;101102.61;3398957;80;20983;-86
2022/10/07 21:50:00;;;;;;;10.38;7.35;;;;;;;9.64;78.58;101094.77;3463782;80;21413;-85
2022/10/07 21:54:51;;;;;;;9.50;7.33;;;;;;;9.63;78.72;101094.73;3451785;80;20956;-84
2022/10/07 21:59:42;;;;;;;11.15;7.50;;;;;;;9.56;78.87;101078.09;3417341;80;21211;-84
2022/10/07 22:04:33;;;;;;;8.55;7.35;;;;;;;9.58;78.94;101080.31;3470009;79;20973;-84
2022/10/07 22:09:24;;;;;;;11.28;8.00;;;;;;;9.57;79.04;101066.89;3501430;80;20922;-84
2022/10/07 22:14:17;;;;;;;10.48;7.45;;;;;;;9.56;79.19;101063.82;3457033;80;20958;-84
2022/10/07 22:19:10;;;;;;;10.58;6.95;;;;;;;9.58;79.21;101062.56;3390405;79;21429;-84
2022/10/07 22:24:04;;;;;;;10.35;7.50;;;;;;;9.55;79.35;101055.59;3485111;79;22186;-84
2022/10/07 22:28:56;;;;;;;11.22;7.17;;;;;;;9.53;79.45;101051.65;3463342;80;21006;-85
2022/10/07 22:33:55;;;;;;;9.78;7.80;;;;;;;9.54;79.48;101048.62;3478372;79;21528;-85
2022/10/07 22:38:46;;;;;;;8.53;7.72;;;;;;;9.54;79.74;101039.11;3445738;80;20964;-85
2022/10/07 22:43:39;;;;;;;9.65;7.62;;;;;;;9.53;79.72;101035.17;3458825;79;20978;-84
2022/10/07 22:48:33;;;;;;;11.78;7.12;;;;;;;9.52;79.84;101025.22;3504856;79;21316;-84
2022/10/07 22:53:25;;;;;;;11.28;8.03;;;;;;;9.51;79.87;101021.28;3540048;79;21271;-84
2022/10/07 22:58:16;;;;;;;9.40;7.50;;;;;;;9.49;79.94;101017.34;3441083;79;21452;-84
2022/10/07 23:03:10;;;;;;;8.60;7.25;;;;;;;9.49;80.06;101012.16;3468273;79;20969;-85
2022/10/07 23:08:00;;;;;;;11.00;7.37;;;;;;;9.49;80.09;101012.16;3443622;79;20988;-84